New York, NY (10032)

8:45 PM EST on December 28, 2014 (GMT -0500)
Washington Heights | Change Station
CLOSE
Current Station
Personal Weather Station
Location: New York, NY
Elevation: 200 ft
Nearby Weather Stations

Elev 200 ft 40.85 °N, 73.94 °W | Updated 8 minutes ago

Overcast
Overcast
45.9 °F
Feels Like 44 °F
N
4.2
Wind Variable Wind from West

Today
High -- | Low -- °F
--% Chance of Precip.
Yesterday
High -- | Low -- °F
Precip. -- in
7:19 AM 4:35 PM
First Quarter, 53% visible
Pressure 29.99 in
Visibility 10.0 miles
Clouds Overcast 3300 ft
Windchill 44 °F
Dew Point 37 °F
Humidity 72%
Rainfall 0.12 in
Snow Depth Not available.
UV 0 out of 12
Pollen .10 out of 12
Air Quality Not available.
Flu Activity Not available.
METAR KNYC 290051Z AUTO 30007KT 10SM OVC033 09/00 A3001 RMK AO2 SLP155 T00890000 $

More Conditions Fewer Conditions

Pressure 29.99 in
Visibility 10.0 miles
Clouds Overcast 3300 ft
Windchill 44 °F
Dew Point 37 °F
Humidity 72%
Rainfall 0.12 in
Snow Depth Not available.
UV 0 out of 12
Pollen .10 out of 12
Air Quality Not available.
Flu Activity Not available.
METAR KNYC 290051Z AUTO 30007KT 10SM OVC033 09/00 A3001 RMK AO2 SLP155 T00890000 $

More Conditions Fewer Conditions

10-Day Weather Forecast

Almanac

Astronomy

Dec. 28, 2014 Rise Set
Actual Time
Civil Twilight
Nautical Twilight
Astronomical Twilight
Moon
Length of Visible Light
Length of Day
Tomorrow will be .
, % of the Moon is Illuminated

Today's Extremes

State Highs State Lows

Community

WunderPhotos

Upload Photos

1,781,489 photos uploaded!

WunderBlogs® & News

Nearby

Air Quality

  Air Quality AQ Index Pollutant
Not available.

Snow Depth

Station Depth Elevation

Earthquake Activity

City Distance Mag. Time & Date
Minimum magnitude displayed is 2.5.

Coastal Water Temperatures

Place Temperature

Nearby Weather Stations